Time;durP1;ratioP1;P1;durP2;ratioP2;P2;SDS_P1;SDS_P2;PMS_P1;PMS_P2;Temp;Humidity;BMP_temperature;BMP_pressure;BME280_temperature;BME280_humidity;BME280_pressure;Samples;Min_cycle;Max_cycle;Signal;HPM_P1;HPM_P2
2023/09/13 00:00:01;;;;;;;19.85;17.13;;;17.60;99.90;;;;;;4968976;28;20070;-79
2023/09/13 00:02:28;;;;;;;19.83;16.77;;;17.50;99.90;;;;;;4969000;28;20434;-79
2023/09/13 00:04:56;;;;;;;19.60;16.75;;;17.50;99.90;;;;;;4975558;28;20051;-80
2023/09/13 00:07:25;;;;;;;20.10;17.27;;;17.50;99.90;;;;;;4967861;28;20050;-80
2023/09/13 00:09:53;;;;;;;17.83;15.75;;;17.40;99.90;;;;;;4977467;28;20101;-79
2023/09/13 00:12:20;;;;;;;19.67;17.13;;;17.40;99.90;;;;;;4970136;28;20039;-79
2023/09/13 00:14:48;;;;;;;19.83;16.58;;;17.30;99.90;;;;;;4976237;28;20116;-80
2023/09/13 00:17:18;;;;;;;19.13;16.23;;;17.30;99.90;;;;;;4968524;28;20439;-80
2023/09/13 00:19:45;;;;;;;20.52;17.02;;;17.30;99.90;;;;;;4977660;28;20074;-80
2023/09/13 00:22:13;;;;;;;22.23;17.60;;;17.30;99.90;;;;;;4996194;28;20070;-79
2023/09/13 00:24:42;;;;;;;20.77;17.38;;;17.30;99.90;;;;;;4983901;28;20080;-80
2023/09/13 00:27:09;;;;;;;20.73;16.73;;;17.30;99.90;;;;;;4968261;28;20137;-80
2023/09/13 00:29:37;;;;;;;20.10;17.98;;;17.20;99.90;;;;;;4968081;28;20066;-80
2023/09/13 00:32:05;;;;;;;20.52;17.65;;;17.20;99.90;;;;;;4968934;28;20051;-80
2023/09/13 00:34:32;;;;;;;24.15;17.27;;;17.20;99.90;;;;;;4968457;28;20069;-81
2023/09/13 00:37:00;;;;;;;20.30;16.60;;;17.20;99.90;;;;;;4969024;28;20070;-80
2023/09/13 00:39:28;;;;;;;21.27;18.17;;;17.20;99.90;;;;;;4969211;28;20538;-81
2023/09/13 00:41:59;;;;;;;24.00;18.15;;;17.10;99.90;;;;;;4968028;28;20105;-80
2023/09/13 00:44:27;;;;;;;21.00;17.75;;;17.10;99.90;;;;;;4969635;28;20042;-81
2023/09/13 00:46:55;;;;;;;22.92;18.17;;;17.00;99.90;;;;;;4967524;28;20051;-80
2023/09/13 00:49:23;;;;;;;23.88;18.50;;;16.90;99.90;;;;;;4976182;28;20153;-82
2023/09/13 00:51:51;;;;;;;22.35;18.40;;;16.90;99.90;;;;;;4969209;28;20042;-81
2023/09/13 00:54:19;;;;;;;20.65;18.55;;;17.00;99.90;;;;;;4969621;28;20057;-79
2023/09/13 00:56:46;;;;;;;23.92;19.90;;;17.00;99.90;;;;;;4974246;28;20043;-81
2023/09/13 00:59:16;;;;;;;20.67;18.45;;;16.90;99.90;;;;;;4968426;28;20133;-82
2023/09/13 01:01:43;;;;;;;23.67;19.73;;;16.90;99.90;;;;;;4976884;28;20154;-82
2023/09/13 01:04:11;;;;;;;25.08;19.33;;;16.90;99.90;;;;;;4974949;28;20055;-81
2023/09/13 01:06:39;;;;;;;25.45;18.63;;;16.80;99.90;;;;;;4968590;28;20046;-79
2023/09/13 01:09:07;;;;;;;21.67;18.63;;;16.80;99.90;;;;;;4966461;28;20133;-80
2023/09/13 01:11:34;;;;;;;20.58;18.40;;;16.80;99.90;;;;;;4984246;28;20074;-79
2023/09/13 01:14:02;;;;;;;20.30;18.08;;;16.80;99.90;;;;;;4967941;28;20042;-80
2023/09/13 01:16:40;;;;;;;22.35;18.67;;;16.70;99.90;;;;;;4972890;28;20062;-80
2023/09/13 01:19:24;;;;;;;22.17;18.77;;;16.70;99.90;;;;;;4971384;28;20055;-80
2023/09/13 01:22:09;;;;;;;22.00;18.83;;;16.70;99.90;;;;;;4972688;28;20376;-80
2023/09/13 01:25:01;;;;;;;21.17;18.75;;;16.60;99.90;;;;;;4971038;28;20144;-82
2023/09/13 01:27:48;;;;;;;19.77;17.70;;;16.60;99.90;;;;;;4980101;28;20055;-80
2023/09/13 01:30:18;;;;;;;21.80;19.45;;;16.60;99.90;;;;;;4980355;28;20635;-80
2023/09/13 01:32:47;;;;;;;22.65;20.20;;;16.50;99.90;;;;;;4972814;28;20113;-80
2023/09/13 01:35:14;;;;;;;24.70;19.13;;;16.50;99.90;;;;;;4987181;28;20050;-81
2023/09/13 01:37:42;;;;;;;21.52;18.75;;;16.50;99.90;;;;;;4980269;28;20790;-80
2023/09/13 01:40:11;;;;;;;22.75;20.40;;;16.50;99.90;;;;;;4977970;28;20138;-81
2023/09/13 01:42:39;;;;;;;22.30;19.90;;;16.40;99.90;;;;;;4968516;28;20038;-80
2023/09/13 01:45:10;;;;;;;21.50;19.25;;;16.40;99.90;;;;;;4968948;28;20109;-81
2023/09/13 01:47:42;;;;;;;23.00;20.30;;;16.40;99.90;;;;;;4971898;28;20049;-82
2023/09/13 01:50:10;;;;;;;22.23;19.88;;;16.40;99.90;;;;;;4987047;28;20083;-82
2023/09/13 01:52:38;;;;;;;27.83;21.25;;;16.40;99.90;;;;;;4969539;28;20074;-82
2023/09/13 01:55:07;;;;;;;24.08;20.52;;;16.30;99.90;;;;;;4976331;28;20047;-81
2023/09/13 01:57:34;;;;;;;25.08;20.75;;;16.30;99.90;;;;;;4973120;28;20313;-81
2023/09/13 02:00:02;;;;;;;24.30;21.70;;;16.20;99.90;;;;;;4978946;28;20049;-82
2023/09/13 02:02:40;;;;;;;25.50;21.35;;;16.20;99.90;;;;;;4971964;28;20038;-82
2023/09/13 02:05:08;;;;;;;27.58;21.05;;;16.10;99.90;;;;;;4970794;28;20038;-82
2023/09/13 02:07:35;;;;;;;25.00;21.38;;;16.10;99.90;;;;;;4977189;28;20047;-80
2023/09/13 02:10:03;;;;;;;23.30;20.85;;;16.10;99.90;;;;;;4972913;28;20057;-81
2023/09/13 02:12:30;;;;;;;23.38;20.88;;;16.20;99.90;;;;;;4982958;28;20058;-80
2023/09/13 02:14:58;;;;;;;25.40;21.33;;;16.20;99.90;;;;;;4992929;28;20142;-80
2023/09/13 02:17:25;;;;;;;22.50;20.15;;;16.20;99.90;;;;;;4970888;28;20534;-80
2023/09/13 02:19:54;;;;;;;27.02;21.52;;;16.10;99.90;;;;;;4985512;28;20050;-81
2023/09/13 02:22:21;;;;;;;24.83;21.42;;;16.10;99.90;;;;;;4978639;28;20074;-79
2023/09/13 02:24:49;;;;;;;23.02;20.75;;;16.00;99.90;;;;;;4982524;28;20055;-81
2023/09/13 02:27:16;;;;;;;27.50;20.65;;;16.00;99.90;;;;;;4971065;28;20051;-79
2023/09/13 02:29:44;;;;;;;24.67;21.17;;;16.00;99.90;;;;;;4972239;28;20487;-83
2023/09/13 02:32:12;;;;;;;28.90;20.92;;;15.90;99.90;;;;;;4971146;28;20038;-81
2023/09/13 02:34:39;;;;;;;24.63;20.45;;;15.90;99.90;;;;;;4981298;28;20035;-80
2023/09/13 02:37:08;;;;;;;24.80;19.77;;;16.00;99.90;;;;;;4972074;28;20050;-81
2023/09/13 02:39:36;;;;;;;23.45;20.70;;;16.00;99.90;;;;;;4979378;28;20058;-81
2023/09/13 02:42:05;;;;;;;24.58;21.05;;;16.00;99.90;;;;;;4971470;28;20043;-80
2023/09/13 02:44:35;;;;;;;23.45;21.00;;;15.90;99.90;;;;;;4970512;28;20074;-80
2023/09/13 02:47:03;;;;;;;23.88;21.30;;;15.90;99.90;;;;;;4971204;28;20593;-81
2023/09/13 02:49:32;;;;;;;28.90;20.95;;;15.80;99.90;;;;;;4978979;28;20043;-80
2023/09/13 02:52:00;;;;;;;23.83;21.27;;;15.80;99.90;;;;;;4985846;28;20071;-80
2023/09/13 02:54:29;;;;;;;28.60;22.00;;;15.90;99.90;;;;;;4971540;28;20387;-82
2023/09/13 02:56:56;;;;;;;24.05;21.50;;;15.80;99.90;;;;;;4970287;28;20051;-80
2023/09/13 02:59:26;;;;;;;26.33;21.92;;;15.70;99.90;;;;;;4977750;28;20039;-79
2023/09/13 03:01:55;;;;;;;26.52;22.50;;;15.70;99.90;;;;;;4978909;28;20077;-81
2023/09/13 03:04:22;;;;;;;25.90;22.52;;;15.70;99.90;;;;;;4970625;28;20039;-83
2023/09/13 03:06:51;;;;;;;24.63;21.60;;;15.70;99.90;;;;;;4969509;28;20141;-80
2023/09/13 03:09:18;;;;;;;26.50;22.60;;;15.70;99.90;;;;;;4970308;28;20139;-83
2023/09/13 03:11:47;;;;;;;23.98;21.48;;;15.70;99.90;;;;;;4968529;28;20058;-79
2023/09/13 03:14:14;;;;;;;27.17;22.17;;;15.70;99.90;;;;;;4984964;28;20073;-80
2023/09/13 03:16:42;;;;;;;26.67;21.13;;;15.60;99.90;;;;;;4967779;28;20061;-81
2023/09/13 03:19:10;;;;;;;28.42;23.08;;;15.60;99.90;;;;;;4969386;28;20047;-81
2023/09/13 03:21:39;;;;;;;28.48;22.80;;;15.70;99.90;;;;;;4977802;28;20043;-80
2023/09/13 03:24:07;;;;;;;25.13;22.45;;;15.60;99.90;;;;;;4969581;28;20150;-78
2023/09/13 03:26:35;;;;;;;27.52;22.58;;;15.60;99.90;;;;;;4969032;28;20035;-80
2023/09/13 03:29:04;;;;;;;25.17;22.30;;;15.50;99.90;;;;;;4969551;28;20043;-80
2023/09/13 03:31:35;;;;;;;25.73;22.52;;;15.50;99.90;;;;;;4968799;28;20356;-80
2023/09/13 03:34:06;;;;;;;27.77;21.95;;;15.50;99.90;;;;;;4967796;28;20074;-82
2023/09/13 03:36:35;;;;;;;24.35;21.73;;;15.50;99.90;;;;;;4977766;28;20043;-81
2023/09/13 03:39:03;;;;;;;27.38;23.48;;;15.50;99.90;;;;;;4974344;28;20469;-81
2023/09/13 03:41:32;;;;;;;25.52;21.30;;;15.50;99.90;;;;;;4978393;28;20039;-82
2023/09/13 03:44:00;;;;;;;28.80;22.75;;;15.50;99.90;;;;;;4967571;28;20098;-79
2023/09/13 03:46:30;;;;;;;27.38;21.80;;;15.50;99.90;;;;;;4968716;28;20077;-81
2023/09/13 03:48:59;;;;;;;25.88;23.10;;;15.50;99.90;;;;;;4968666;28;20078;-81
2023/09/13 03:51:27;;;;;;;28.80;23.35;;;15.50;99.90;;;;;;4969097;28;20105;-81
2023/09/13 03:53:55;;;;;;;26.63;23.92;;;15.50;99.90;;;;;;4969533;28;20039;-80
2023/09/13 03:56:22;;;;;;;26.48;23.65;;;15.40;99.90;;;;;;4968908;28;20038;-80
2023/09/13 03:58:50;;;;;;;25.85;23.10;;;15.50;99.90;;;;;;4971497;28;20652;-80
2023/09/13 04:01:18;;;;;;;35.28;31.73;;;15.40;99.90;;;;;;4984541;28;20113;-81
2023/09/13 04:03:47;;;;;;;40.42;36.42;;;15.40;99.90;;;;;;4981560;28;20075;-80
2023/09/13 04:06:16;;;;;;;47.15;42.40;;;15.30;99.90;;;;;;4979000;28;20053;-80
2023/09/13 04:08:43;;;;;;;62.38;56.30;;;15.30;99.90;;;;;;4971334;28;20058;-79
2023/09/13 04:11:10;;;;;;;67.72;61.20;;;15.40;99.90;;;;;;4970119;28;20043;-81
2023/09/13 04:13:38;;;;;;;55.83;50.10;;;15.20;99.90;;;;;;4969006;28;20188;-79
2023/09/13 04:16:08;;;;;;;45.55;40.65;;;15.20;99.90;;;;;;4966541;28;20125;-80
2023/09/13 04:18:36;;;;;;;47.70;42.80;;;15.20;99.90;;;;;;4978140;28;20047;-82
2023/09/13 04:21:07;;;;;;;48.08;43.15;;;15.20;99.90;;;;;;4976902;28;20039;-80
2023/09/13 04:23:35;;;;;;;44.75;39.97;;;15.20;99.90;;;;;;4967576;28;20514;-82
2023/09/13 04:26:03;;;;;;;44.50;39.42;;;15.20;99.90;;;;;;4967725;28;20066;-80
2023/09/13 04:28:33;;;;;;;40.58;34.45;;;15.20;99.90;;;;;;4968528;28;20133;-80
2023/09/13 04:31:06;;;;;;;37.10;33.23;;;15.20;99.90;;;;;;4977517;28;20451;-80
2023/09/13 04:33:53;;;;;;;36.03;32.30;;;15.30;99.90;;;;;;4968897;28;20078;-81
2023/09/13 04:36:26;;;;;;;35.25;31.67;;;15.30;99.90;;;;;;4966290;28;20141;-80
2023/09/13 04:38:58;;;;;;;34.42;27.73;;;15.30;99.90;;;;;;4978172;28;20146;-80
2023/09/13 04:41:26;;;;;;;29.25;26.23;;;15.30;99.90;;;;;;4961584;28;20051;-81
2023/09/13 04:43:54;;;;;;;33.33;25.67;;;15.30;99.90;;;;;;4968071;28;20116;-81
2023/09/13 04:46:23;;;;;;;29.42;26.25;;;15.40;99.90;;;;;;4968301;28;20082;-80
2023/09/13 04:48:57;;;;;;;30.77;27.63;;;15.40;99.90;;;;;;4975158;28;20129;-81
2023/09/13 04:51:27;;;;;;;32.63;29.13;;;15.50;99.90;;;;;;4968317;28;20054;-81
2023/09/13 04:53:54;;;;;;;36.45;31.55;;;15.50;99.90;;;;;;4975853;28;20049;-80
2023/09/13 04:56:21;;;;;;;29.75;26.42;;;15.50;99.90;;;;;;4975511;28;20043;-81
2023/09/13 04:58:49;;;;;;;30.00;26.58;;;15.50;99.90;;;;;;4974327;28;20050;-81
2023/09/13 05:01:17;;;;;;;28.38;25.35;;;15.50;99.90;;;;;;4967654;28;20146;-81
2023/09/13 05:03:46;;;;;;;28.40;25.38;;;15.50;99.90;;;;;;4967052;28;20481;-80
2023/09/13 05:06:13;;;;;;;28.92;25.45;;;15.60;99.90;;;;;;4967724;28;20101;-80
2023/09/13 05:08:42;;;;;;;38.88;26.40;;;15.60;99.90;;;;;;4968667;28;20171;-81
2023/09/13 05:11:11;;;;;;;34.38;25.65;;;15.60;99.90;;;;;;4978546;28;20039;-83
2023/09/13 05:13:39;;;;;;;35.22;25.17;;;15.60;99.90;;;;;;4975283;28;20117;-79
2023/09/13 05:16:06;;;;;;;27.75;24.75;;;15.60;99.90;;;;;;4967306;28;20039;-81
2023/09/13 05:18:34;;;;;;;32.38;24.85;;;15.70;99.90;;;;;;4957488;28;20044;-81
2023/09/13 05:21:02;;;;;;;26.67;23.77;;;15.70;99.90;;;;;;4949574;28;20395;-79
2023/09/13 05:23:30;;;;;;;27.73;24.75;;;15.80;99.90;;;;;;4947356;28;20044;-78
2023/09/13 05:25:58;;;;;;;31.13;25.30;;;15.90;99.90;;;;;;4949264;28;20500;-79
2023/09/13 05:28:26;;;;;;;33.80;26.65;;;16.10;99.90;;;;;;4949085;28;20055;-78
2023/09/13 05:30:54;;;;;;;32.58;25.17;;;16.20;99.90;;;;;;4949884;28;20059;-78
2023/09/13 05:33:21;;;;;;;34.83;25.45;;;16.30;99.90;;;;;;4959252;28;20503;-78
2023/09/13 05:35:48;;;;;;;30.25;26.08;;;16.50;99.90;;;;;;4955523;28;20411;-80
2023/09/13 05:38:16;;;;;;;29.23;25.85;;;16.60;99.90;;;;;;4962803;28;20062;-81
2023/09/13 05:40:43;;;;;;;33.63;24.85;;;16.80;99.90;;;;;;4947318;28;20499;-79
2023/09/13 05:43:12;;;;;;;26.20;22.65;;;17.00;99.90;;;;;;4949268;28;20044;-79
2023/09/13 05:45:40;;;;;;;28.45;24.52;;;17.20;99.90;;;;;;4949520;28;20412;-80
2023/09/13 05:48:08;;;;;;;30.70;23.40;;;17.40;99.90;;;;;;4948703;28;20043;-79
2023/09/13 05:50:35;;;;;;;29.10;23.05;;;17.50;99.90;;;;;;4949847;28;20721;-79
2023/09/13 05:53:03;;;;;;;29.67;24.38;;;17.60;99.90;;;;;;4956301;28;20050;-80
2023/09/13 05:55:30;;;;;;;30.13;22.77;;;18.00;99.90;;;;;;4956891;28;20047;-80
2023/09/13 05:57:58;;;;;;;27.63;22.38;;;18.30;99.90;;;;;;4953657;28;20435;-78
2023/09/13 06:00:26;;;;;;;31.88;22.38;;;18.60;99.90;;;;;;4965446;28;20062;-78
2023/09/13 06:02:54;;;;;;;26.20;23.40;;;18.80;99.90;;;;;;4961124;28;20049;-80
2023/09/13 06:05:21;;;;;;;31.80;22.20;;;19.10;99.90;;;;;;4962413;28;20102;-78
2023/09/13 06:07:50;;;;;;;31.48;23.13;;;19.20;99.90;;;;;;4961927;28;20050;-81
2023/09/13 06:10:17;;;;;;;25.08;22.05;;;19.30;99.90;;;;;;4964728;28;20066;-81
2023/09/13 06:12:45;;;;;;;31.50;25.27;;;19.50;99.90;;;;;;4970197;28;20051;-79
2023/09/13 06:15:13;;;;;;;32.35;26.17;;;19.70;99.90;;;;;;4956601;28;20491;-78
2023/09/13 06:17:42;;;;;;;30.05;22.60;;;19.80;99.90;;;;;;4966822;28;20071;-78
2023/09/13 06:20:09;;;;;;;30.45;22.95;;;20.00;99.90;;;;;;4971469;28;20046;-82
2023/09/13 06:22:37;;;;;;;29.25;20.65;;;20.10;99.90;;;;;;4978161;28;20078;-80
2023/09/13 06:25:05;;;;;;;26.52;23.67;;;20.20;99.90;;;;;;4973356;28;20035;-79
2023/09/13 06:27:32;;;;;;;36.72;25.80;;;20.40;99.90;;;;;;4972954;28;20089;-81
2023/09/13 06:30:00;;;;;;;29.77;23.80;;;20.60;99.90;;;;;;4978506;28;20046;-79
2023/09/13 06:32:27;;;;;;;28.95;21.95;;;20.80;99.90;;;;;;4969951;28;20043;-78
2023/09/13 06:34:58;;;;;;;30.08;22.42;;;20.90;99.90;;;;;;4970713;28;20043;-78
2023/09/13 06:37:26;;;;;;;29.30;21.40;;;21.10;99.90;;;;;;4981270;28;20038;-80
2023/09/13 06:39:54;;;;;;;29.92;23.85;;;21.20;99.90;;;;;;4972715;28;20039;-80
2023/09/13 06:42:21;;;;;;;25.90;20.98;;;21.30;99.90;;;;;;4976033;28;20133;-77
2023/09/13 06:44:49;;;;;;;29.90;25.05;;;21.40;99.90;;;;;;4977257;28;20134;-79
2023/09/13 06:47:16;;;;;;;29.38;21.75;;;21.40;99.90;;;;;;4981175;28;20043;-79
2023/09/13 06:49:44;;;;;;;23.13;19.95;;;21.50;99.90;;;;;;4971234;28;20491;-79
2023/09/13 06:52:12;;;;;;;26.33;20.17;;;21.60;99.90;;;;;;4969582;28;20039;-79
2023/09/13 06:54:40;;;;;;;24.23;19.80;;;21.70;99.90;;;;;;4977922;28;20173;-79
2023/09/13 06:57:08;;;;;;;117.35;41.25;;;21.90;99.90;;;;;;4969128;28;20517;-76
2023/09/13 06:59:36;;;;;;;48.42;21.70;;;22.00;99.90;;;;;;4970312;28;20047;-77
2023/09/13 07:02:03;;;;;;;22.77;18.60;;;22.20;99.90;;;;;;4970308;28;20395;-78
2023/09/13 07:04:31;;;;;;;22.55;18.90;;;22.40;99.90;;;;;;4972079;28;20034;-77
2023/09/13 07:06:58;;;;;;;27.88;17.35;;;22.50;99.90;;;;;;4972582;28;20061;-80
2023/09/13 07:09:27;;;;;;;27.05;20.45;;;22.70;99.90;;;;;;4971521;28;20054;-78
2023/09/13 07:11:55;;;;;;;37.00;23.58;;;22.90;99.90;;;;;;4971414;28;20094;-79
2023/09/13 07:14:32;;;;;;;32.58;24.70;;;22.90;99.90;;;;;;4977524;28;20049;-79
2023/09/13 07:17:00;;;;;;;32.03;24.83;;;23.10;99.90;;;;;;4985492;28;20047;-79
2023/09/13 07:19:27;;;;;;;31.67;24.25;;;23.30;99.90;;;;;;4977144;28;20039;-79
2023/09/13 07:21:55;;;;;;;35.53;27.65;;;23.40;99.90;;;;;;4978370;28;20042;-78
2023/09/13 07:24:22;;;;;;;34.83;26.17;;;23.50;99.90;;;;;;4977896;28;20412;-79
2023/09/13 07:26:52;;;;;;;43.70;29.20;;;23.70;99.90;;;;;;4977999;28;20047;-80
2023/09/13 07:29:19;;;;;;;41.38;30.48;;;23.80;99.90;;;;;;4968640;28;20046;-79
2023/09/13 07:31:47;;;;;;;42.08;30.80;;;23.90;99.90;;;;;;4970356;28;20511;-79
2023/09/13 07:34:15;;;;;;;40.70;29.50;;;24.00;99.90;;;;;;4971587;28;20070;-79
2023/09/13 07:36:42;;;;;;;43.00;29.10;;;24.10;99.90;;;;;;4970045;28;20038;-80
2023/09/13 07:39:10;;;;;;;32.80;25.08;;;24.20;99.90;;;;;;4970947;28;20042;-78
2023/09/13 07:41:37;;;;;;;29.40;22.10;;;24.30;99.90;;;;;;4968937;28;20054;-79
2023/09/13 07:44:06;;;;;;;31.98;21.20;;;24.40;99.90;;;;;;4969650;28;20491;-79
2023/09/13 07:46:34;;;;;;;25.00;19.30;;;24.50;99.90;;;;;;4989038;28;20055;-79
2023/09/13 07:49:04;;;;;;;28.20;19.08;;;24.60;99.90;;;;;;4983787;28;20066;-79
2023/09/13 07:51:31;;;;;;;26.33;19.75;;;24.70;99.90;;;;;;4982846;28;20055;-81
2023/09/13 07:54:03;;;;;;;24.52;16.98;;;24.70;99.90;;;;;;4970698;28;20043;-79
2023/09/13 07:56:32;;;;;;;24.35;16.48;;;24.90;99.90;;;;;;4970313;28;20039;-78
2023/09/13 07:58:59;;;;;;;29.67;17.55;;;25.00;99.90;;;;;;4970004;28;20058;-78
2023/09/13 08:01:29;;;;;;;25.00;17.80;;;25.10;99.90;;;;;;4977025;28;20050;-79
2023/09/13 08:03:57;;;;;;;22.50;16.52;;;25.20;99.90;;;;;;4971096;28;20544;-80
2023/09/13 08:06:25;;;;;;;24.10;16.35;;;25.30;99.90;;;;;;4969205;28;20051;-79
2023/09/13 08:08:52;;;;;;;22.88;15.75;;;25.50;99.90;;;;;;4968651;28;20047;-79
2023/09/13 08:11:20;;;;;;;21.48;15.40;;;25.60;99.90;;;;;;4976626;28;20090;-79
2023/09/13 08:13:47;;;;;;;18.63;14.15;;;25.70;99.90;;;;;;4973756;28;20055;-79
2023/09/13 08:16:37;;;;;;;18.25;10.82;;;25.90;99.90;;;;;;4969851;28;20043;-79
2023/09/13 08:19:09;;;;;;;16.65;10.90;;;26.00;99.90;;;;;;4981826;28;20054;-74
2023/09/13 08:21:41;;;;;;;17.23;11.27;;;26.20;99.90;;;;;;4965163;28;20058;-76
2023/09/13 08:24:09;;;;;;;17.42;9.35;;;26.20;99.90;;;;;;4964581;28;20046;-76
2023/09/13 08:26:37;;;;;;;18.48;10.65;;;26.20;99.90;;;;;;4966435;28;20047;-75
2023/09/13 08:29:13;;;;;;;18.63;11.48;;;26.40;99.90;;;;;;4967382;28;20047;-75
2023/09/13 08:31:45;;;;;;;19.00;12.23;;;26.50;99.90;;;;;;4981737;28;20051;-76
2023/09/13 08:34:14;;;;;;;25.05;13.10;;;26.50;99.90;;;;;;4962983;28;20071;-74
2023/09/13 08:36:53;;;;;;;21.90;11.75;;;26.60;99.90;;;;;;4962882;28;20043;-74
2023/09/13 08:39:31;;;;;;;16.65;12.15;;;26.80;99.90;;;;;;4977079;28;20046;-74
2023/09/13 08:45:18;;;;;;;15.45;10.18;;;27.30;99.90;;;;;;4956246;28;20097;-73
2023/09/13 08:48:18;;;;;;;16.25;9.20;;;27.30;99.90;;;;;;4950711;28;20055;-73
2023/09/13 08:51:33;;;;;;;16.23;9.75;;;27.40;99.90;;;;;;4961649;28;20039;-75
2023/09/13 08:54:58;;;;;;;20.05;11.10;;;27.50;99.90;;;;;;4936974;28;20051;-75
2023/09/13 08:58:16;;;;;;;15.82;9.50;;;27.80;99.90;;;;;;4918250;28;20050;-75
2023/09/13 09:01:09;;;;;;;;;;;;;;;;;;;;;
2023/09/13 09:07:39;;;;;;;;;;;;;;;;;;;;;
2023/09/13 09:10:59;;;;;;;16.95;10.30;;;28.10;99.90;;;;;;4934784;28;20142;-75
2023/09/13 09:21:41;;;;;;;12.52;6.65;;;28.50;99.90;;;;;;4927513;29;20048;-74
2023/09/13 09:27:35;;;;;;;16.98;9.73;;;28.70;99.90;;;;;;4974114;28;20049;-72
2023/09/13 09:30:40;;;;;;;11.70;7.70;;;28.80;99.90;;;;;;4932901;28;20043;-72
2023/09/13 09:33:27;;;;;;;11.05;7.03;;;28.90;99.90;;;;;;4939113;28;20153;-73
2023/09/13 09:43:16;;;;;;;11.85;7.75;;;28.90;99.90;;;;;;4900906;29;20056;-76
2023/09/13 09:49:57;;;;;;;;;;;;;;;;;;;;;
2023/09/13 10:18:03;;;;;;;14.60;7.72;;;29.40;99.90;;;;;;4858806;29;20056;-74
2023/09/13 10:20:50;;;;;;;;;;;;;;;;;;;;;
2023/09/13 10:27:35;;;;;;;12.00;6.75;;;29.20;99.90;;;;;;4927683;29;20381;-74
2023/09/13 10:34:22;;;;;;;16.42;7.97;;;29.20;99.90;;;;;;4829947;29;20253;-74
2023/09/13 10:37:10;;;;;;;12.00;6.88;;;29.20;99.90;;;;;;4942558;29;20052;-74
2023/09/13 10:40:10;;;;;;;12.20;6.80;;;29.20;99.90;;;;;;4934479;29;20043;-72
2023/09/13 10:43:06;;;;;;;10.20;7.15;;;29.20;99.90;;;;;;4918232;29;20054;-75
2023/09/13 10:46:15;;;;;;;12.35;8.55;;;29.20;99.90;;;;;;4911892;29;20063;-75
2023/09/13 10:49:26;;;;;;;11.20;7.57;;;29.40;99.90;;;;;;4925458;29;20047;-73
2023/09/13 10:52:25;;;;;;;10.75;6.95;;;29.40;99.90;;;;;;4928691;29;20127;-75
2023/09/13 11:43:01;;;;;;;15.88;7.90;;;30.20;99.90;;;;;;4715260;30;20462;-76
2023/09/13 11:45:39;;;;;;;13.05;8.32;;;30.30;99.90;;;;;;4764372;29;20059;-77
2023/09/13 12:32:56;;;;;;;11.32;6.50;;;30.40;99.90;;;;;;4751690;30;20040;-73
2023/09/13 14:10:53;;;;;;;10.23;6.55;;;30.90;99.90;;;;;;4760356;30;20058;-80
2023/09/13 14:19:05;;;;;;;16.25;6.78;;;30.80;99.90;;;;;;4939660;24;20118;-83
2023/09/13 14:21:32;;;;;;;11.88;6.00;;;30.80;99.90;;;;;;4973875;28;20054;-83
2023/09/13 14:24:03;;;;;;;9.60;6.15;;;30.70;99.90;;;;;;4941910;28;20046;-81
2023/09/13 14:26:32;;;;;;;9.73;6.13;;;30.70;99.90;;;;;;4967277;28;20045;-83
2023/09/13 14:29:00;;;;;;;10.35;6.10;;;30.70;99.90;;;;;;4975683;28;20442;-81
2023/09/13 14:31:29;;;;;;;11.00;6.60;;;30.70;99.90;;;;;;4965101;28;20046;-83
2023/09/13 14:33:56;;;;;;;10.70;6.10;;;30.50;99.90;;;;;;4985028;28;20058;-80
2023/09/13 14:36:24;;;;;;;9.02;6.07;;;30.60;99.90;;;;;;4984803;28;20059;-81
2023/09/13 14:38:52;;;;;;;9.45;6.80;;;30.50;99.90;;;;;;4966696;28;20063;-81
2023/09/13 14:41:20;;;;;;;11.57;6.25;;;30.40;99.90;;;;;;4967956;28;20742;-81
2023/09/13 14:43:49;;;;;;;7.90;6.15;;;30.40;99.90;;;;;;4969037;28;20062;-82
2023/09/13 14:46:16;;;;;;;12.02;7.05;;;30.30;99.90;;;;;;4969111;28;20045;-81
2023/09/13 14:48:46;;;;;;;9.52;6.03;;;30.30;99.90;;;;;;4970694;28;20065;-80
2023/09/13 14:51:13;;;;;;;10.20;5.63;;;30.30;99.90;;;;;;4970257;28;20046;-81
2023/09/13 14:53:40;;;;;;;11.15;5.95;;;30.30;99.90;;;;;;4957384;28;20043;-80
2023/09/13 14:56:09;;;;;;;9.77;6.18;;;30.20;99.90;;;;;;4956254;28;20414;-81
2023/09/13 14:58:36;;;;;;;9.65;5.88;;;30.10;99.90;;;;;;4967359;28;20092;-81
2023/09/13 15:01:06;;;;;;;6.70;5.40;;;30.10;99.90;;;;;;4970318;28;20372;-82
2023/09/13 15:03:34;;;;;;;9.73;6.82;;;30.00;99.90;;;;;;4960981;28;20047;-80
2023/09/13 15:06:03;;;;;;;8.45;5.80;;;29.90;99.90;;;;;;4973650;28;20039;-80
2023/09/13 15:08:31;;;;;;;9.20;6.68;;;29.90;99.90;;;;;;4979298;28;20058;-80
2023/09/13 15:10:59;;;;;;;13.50;7.85;;;29.90;99.90;;;;;;4974771;28;20062;-80
2023/09/13 15:13:26;;;;;;;13.00;6.78;;;29.80;99.90;;;;;;4958631;28;20039;-80
2023/09/13 15:15:54;;;;;;;10.05;6.97;;;29.70;99.90;;;;;;4960280;28;20039;-83
2023/09/13 15:18:23;;;;;;;8.15;6.15;;;29.80;99.90;;;;;;4957105;28;20138;-81
2023/09/13 15:20:50;;;;;;;11.52;6.45;;;29.80;99.90;;;;;;4971338;28;20513;-78
2023/09/13 15:23:18;;;;;;;11.40;5.72;;;29.80;99.90;;;;;;4973189;28;20039;-83
2023/09/13 15:25:45;;;;;;;11.48;6.45;;;29.80;99.90;;;;;;4981147;28;20069;-82
2023/09/13 15:28:13;;;;;;;12.02;7.82;;;29.80;99.90;;;;;;4967976;28;20106;-82
2023/09/13 15:30:40;;;;;;;11.07;6.25;;;29.80;99.90;;;;;;4955689;28;20038;-82
2023/09/13 15:33:07;;;;;;;9.15;6.10;;;29.80;99.90;;;;;;4955314;28;20055;-82
2023/09/13 15:35:36;;;;;;;9.75;7.20;;;29.70;99.90;;;;;;4967721;28;20078;-83
2023/09/13 15:38:04;;;;;;;13.68;9.40;;;29.70;99.90;;;;;;4958159;28;20098;-78
2023/09/13 15:40:32;;;;;;;12.13;8.75;;;29.70;99.90;;;;;;4954908;28;20042;-80
2023/09/13 15:42:59;;;;;;;11.82;7.65;;;29.60;99.90;;;;;;4966482;28;20124;-81
2023/09/13 15:45:27;;;;;;;15.52;9.30;;;29.70;99.90;;;;;;4967863;28;20479;-83
2023/09/13 15:47:56;;;;;;;12.75;8.77;;;29.60;99.90;;;;;;4967594;28;20077;-83
2023/09/13 15:50:23;;;;;;;14.70;8.95;;;29.60;99.90;;;;;;4956980;28;20043;-82
2023/09/13 15:52:52;;;;;;;11.63;8.45;;;29.50;99.90;;;;;;4965993;28;20435;-83
2023/09/13 15:55:20;;;;;;;11.48;7.38;;;29.40;99.90;;;;;;4968669;28;20102;-83
2023/09/13 15:57:47;;;;;;;16.58;11.82;;;29.20;99.90;;;;;;4969716;28;20047;-82
2023/09/13 16:00:15;;;;;;;15.73;12.77;;;29.10;99.90;;;;;;4966552;28;20047;-81
2023/09/13 16:02:42;;;;;;;14.88;10.85;;;28.90;99.90;;;;;;4955587;28;20057;-82
2023/09/13 16:05:10;;;;;;;26.00;20.00;;;28.70;99.90;;;;;;4967821;28;20070;-83
2023/09/13 16:07:38;;;;;;;35.80;25.77;;;28.60;99.90;;;;;;4968344;28;20065;-81
2023/09/13 16:10:08;;;;;;;30.45;24.17;;;28.50;99.90;;;;;;4967149;28;20035;-81
2023/09/13 16:12:38;;;;;;;25.55;16.27;;;28.30;99.90;;;;;;4967325;28;20070;-82
2023/09/13 16:15:07;;;;;;;24.15;18.75;;;28.10;99.90;;;;;;4954882;28;20046;-82
2023/09/13 16:17:34;;;;;;;18.20;13.43;;;27.90;99.90;;;;;;4953296;28;20058;-82
2023/09/13 16:20:02;;;;;;;17.73;13.07;;;27.80;99.90;;;;;;4967236;28;20042;-83
2023/09/13 16:22:30;;;;;;;20.52;13.20;;;27.60;99.90;;;;;;4967222;28;20046;-82
2023/09/13 16:24:59;;;;;;;22.73;17.73;;;27.40;99.90;;;;;;4967326;28;20121;-81
2023/09/13 16:27:28;;;;;;;19.17;12.75;;;27.30;99.90;;;;;;4957203;28;20436;-81
2023/09/13 16:29:55;;;;;;;18.55;13.60;;;27.10;99.90;;;;;;4968863;28;20134;-83
2023/09/13 16:32:23;;;;;;;19.50;13.52;;;26.90;99.90;;;;;;4983198;28;20043;-80
2023/09/13 16:34:50;;;;;;;17.08;13.18;;;26.90;99.90;;;;;;4967111;28;20062;-82
2023/09/13 16:37:18;;;;;;;24.35;12.90;;;26.70;99.90;;;;;;4956459;28;20140;-82
2023/09/13 16:39:45;;;;;;;18.58;12.70;;;26.50;99.90;;;;;;4958775;28;20407;-82
2023/09/13 16:42:12;;;;;;;20.33;13.32;;;26.30;99.90;;;;;;4956024;28;20047;-81
2023/09/13 16:44:41;;;;;;;18.50;12.30;;;26.30;99.90;;;;;;4958594;28;20043;-83
2023/09/13 16:47:10;;;;;;;19.02;13.10;;;26.10;99.90;;;;;;4954974;28;20145;-83
2023/09/13 16:49:37;;;;;;;20.88;13.93;;;25.90;99.90;;;;;;4955198;28;20062;-80
2023/09/13 16:52:05;;;;;;;20.60;13.25;;;25.70;99.90;;;;;;4966831;28;20369;-81
2023/09/13 16:54:32;;;;;;;20.60;12.38;;;25.60;99.90;;;;;;4973521;28;20043;-80
2023/09/13 16:57:00;;;;;;;21.00;14.52;;;25.50;99.90;;;;;;4970725;28;20065;-81
2023/09/13 16:59:27;;;;;;;24.27;14.48;;;25.50;99.90;;;;;;4966334;28;20057;-81
2023/09/13 17:02:04;;;;;;;35.65;22.05;;;25.40;99.90;;;;;;4969130;28;20058;-81
2023/09/13 17:04:32;;;;;;;27.73;19.35;;;25.40;99.90;;;;;;4974792;28;20141;-82
2023/09/13 17:07:00;;;;;;;37.90;24.92;;;25.40;99.90;;;;;;4956896;28;20046;-82